sensor_id;sensor_type;location;lat;lon;timestamp;temperature;humidity
54846;DHT22;53889;50.084;8.646;2023-07-13T00:01:17;24.20;74.10
54846;DHT22;53889;50.084;8.646;2023-07-13T00:03:43;21.30;72.50
54846;DHT22;53889;50.084;8.646;2023-07-13T00:06:12;21.20;72.20
54846;DHT22;53889;50.084;8.646;2023-07-13T00:08:39;22.10;73.00
54846;DHT22;53889;50.084;8.646;2023-07-13T00:11:06;22.70;72.90
54846;DHT22;53889;50.084;8.646;2023-07-13T00:13:33;23.30;73.00
54846;DHT22;53889;50.084;8.646;2023-07-13T00:15:59;21.50;71.70
54846;DHT22;53889;50.084;8.646;2023-07-13T00:18:26;24.50;73.60
54846;DHT22;53889;50.084;8.646;2023-07-13T00:20:55;21.90;71.80
54846;DHT22;53889;50.084;8.646;2023-07-13T00:23:26;21.30;71.50
54846;DHT22;53889;50.084;8.646;2023-07-13T00:25:53;21.30;71.80
54846;DHT22;53889;50.084;8.646;2023-07-13T00:28:22;21.80;72.20
54846;DHT22;53889;50.084;8.646;2023-07-13T00:30:49;21.10;72.10
54846;DHT22;53889;50.084;8.646;2023-07-13T00:33:15;21.00;72.70
54846;DHT22;53889;50.084;8.646;2023-07-13T00:35:42;20.90;72.80
54846;DHT22;53889;50.084;8.646;2023-07-13T00:38:09;21.10;73.00
54846;DHT22;53889;50.084;8.646;2023-07-13T00:40:37;21.10;72.90
54846;DHT22;53889;50.084;8.646;2023-07-13T00:43:05;20.90;73.30
54846;DHT22;53889;50.084;8.646;2023-07-13T00:46:12;21.60;73.60
54846;DHT22;53889;50.084;8.646;2023-07-13T00:48:43;20.80;73.60
54846;DHT22;53889;50.084;8.646;2023-07-13T00:51:11;20.70;73.50
54846;DHT22;53889;50.084;8.646;2023-07-13T00:53:40;20.60;74.20
54846;DHT22;53889;50.084;8.646;2023-07-13T00:56:09;20.50;75.00
54846;DHT22;53889;50.084;8.646;2023-07-13T00:58:36;20.60;74.30
54846;DHT22;53889;50.084;8.646;2023-07-13T01:01:03;20.60;74.40
54846;DHT22;53889;50.084;8.646;2023-07-13T01:03:30;20.50;74.50
54846;DHT22;53889;50.084;8.646;2023-07-13T01:05:58;20.50;74.30
54846;DHT22;53889;50.084;8.646;2023-07-13T01:08:25;21.60;75.00
54846;DHT22;53889;50.084;8.646;2023-07-13T01:10:53;20.60;74.40
54846;DHT22;53889;50.084;8.646;2023-07-13T01:13:22;21.90;74.90
54846;DHT22;53889;50.084;8.646;2023-07-13T01:15:51;21.70;75.10
54846;DHT22;53889;50.084;8.646;2023-07-13T01:18:20;20.50;74.40
54846;DHT22;53889;50.084;8.646;2023-07-13T01:20:52;20.60;74.30
54846;DHT22;53889;50.084;8.646;2023-07-13T01:23:19;20.60;74.50
54846;DHT22;53889;50.084;8.646;2023-07-13T01:25:47;20.60;74.70
54846;DHT22;53889;50.084;8.646;2023-07-13T01:28:14;20.50;74.60
54846;DHT22;53889;50.084;8.646;2023-07-13T01:30:43;21.70;75.40
54846;DHT22;53889;50.084;8.646;2023-07-13T01:33:12;22.20;76.20
54846;DHT22;53889;50.084;8.646;2023-07-13T01:35:39;20.30;75.50
54846;DHT22;53889;50.084;8.646;2023-07-13T01:38:08;22.90;77.70
54846;DHT22;53889;50.084;8.646;2023-07-13T01:40:36;23.20;78.20
54846;DHT22;53889;50.084;8.646;2023-07-13T01:43:04;20.00;76.90
54846;DHT22;53889;50.084;8.646;2023-07-13T01:45:30;20.70;77.00
54846;DHT22;53889;50.084;8.646;2023-07-13T01:47:57;20.10;76.70
54846;DHT22;53889;50.084;8.646;2023-07-13T01:50:25;20.00;77.00
54846;DHT22;53889;50.084;8.646;2023-07-13T01:52:52;19.90;77.60
54846;DHT22;53889;50.084;8.646;2023-07-13T01:55:21;19.80;77.60
54846;DHT22;53889;50.084;8.646;2023-07-13T01:57:48;19.80;77.90
54846;DHT22;53889;50.084;8.646;2023-07-13T02:00:16;19.60;77.80
54846;DHT22;53889;50.084;8.646;2023-07-13T02:02:46;19.80;77.60
54846;DHT22;53889;50.084;8.646;2023-07-13T02:05:13;19.80;78.00
54846;DHT22;53889;50.084;8.646;2023-07-13T02:07:41;19.70;78.00
54846;DHT22;53889;50.084;8.646;2023-07-13T02:10:09;19.50;78.70
54846;DHT22;53889;50.084;8.646;2023-07-13T02:12:38;19.40;79.00
54846;DHT22;53889;50.084;8.646;2023-07-13T02:15:06;19.40;79.40
54846;DHT22;53889;50.084;8.646;2023-07-13T02:17:34;19.50;78.60
54846;DHT22;53889;50.084;8.646;2023-07-13T02:20:00;19.50;78.60
54846;DHT22;53889;50.084;8.646;2023-07-13T02:22:28;19.60;78.50
54846;DHT22;53889;50.084;8.646;2023-07-13T02:24:56;19.60;78.30
54846;DHT22;53889;50.084;8.646;2023-07-13T02:27:25;19.50;78.70
54846;DHT22;53889;50.084;8.646;2023-07-13T02:29:53;19.40;78.80
54846;DHT22;53889;50.084;8.646;2023-07-13T02:32:21;19.30;79.00
54846;DHT22;53889;50.084;8.646;2023-07-13T02:34:51;19.30;79.10
54846;DHT22;53889;50.084;8.646;2023-07-13T02:37:18;19.30;79.40
54846;DHT22;53889;50.084;8.646;2023-07-13T02:39:45;19.30;79.10
54846;DHT22;53889;50.084;8.646;2023-07-13T02:42:13;19.30;79.10
54846;DHT22;53889;50.084;8.646;2023-07-13T02:44:40;19.40;78.80
54846;DHT22;53889;50.084;8.646;2023-07-13T02:47:08;19.40;78.70
54846;DHT22;53889;50.084;8.646;2023-07-13T02:49:35;19.40;78.80
54846;DHT22;53889;50.084;8.646;2023-07-13T02:52:01;19.50;78.80
54846;DHT22;53889;50.084;8.646;2023-07-13T02:54:28;19.40;78.80
54846;DHT22;53889;50.084;8.646;2023-07-13T02:56:55;19.40;78.90
54846;DHT22;53889;50.084;8.646;2023-07-13T02:59:21;19.30;79.20
54846;DHT22;53889;50.084;8.646;2023-07-13T03:01:48;19.30;79.10
54846;DHT22;53889;50.084;8.646;2023-07-13T03:04:17;19.10;79.10
54846;DHT22;53889;50.084;8.646;2023-07-13T03:06:45;19.20;79.20
54846;DHT22;53889;50.084;8.646;2023-07-13T03:09:12;19.10;79.40
54846;DHT22;53889;50.084;8.646;2023-07-13T03:11:42;19.10;79.20
54846;DHT22;53889;50.084;8.646;2023-07-13T03:14:30;19.00;79.80
54846;DHT22;53889;50.084;8.646;2023-07-13T03:16:58;18.80;80.20
54846;DHT22;53889;50.084;8.646;2023-07-13T03:19:30;18.80;80.20
54846;DHT22;53889;50.084;8.646;2023-07-13T03:21:56;18.80;80.20
54846;DHT22;53889;50.084;8.646;2023-07-13T03:24:23;18.80;80.20
54846;DHT22;53889;50.084;8.646;2023-07-13T03:26:51;18.80;80.10
54846;DHT22;53889;50.084;8.646;2023-07-13T03:29:18;18.70;80.20
54846;DHT22;53889;50.084;8.646;2023-07-13T03:31:45;18.60;80.30
54846;DHT22;53889;50.084;8.646;2023-07-13T03:34:12;18.70;80.40
54846;DHT22;53889;50.084;8.646;2023-07-13T03:36:41;18.80;80.30
54846;DHT22;53889;50.084;8.646;2023-07-13T03:39:10;18.70;80.50
54846;DHT22;53889;50.084;8.646;2023-07-13T03:41:45;18.60;80.70
54846;DHT22;53889;50.084;8.646;2023-07-13T03:44:12;18.60;80.60
54846;DHT22;53889;50.084;8.646;2023-07-13T03:46:39;18.60;80.50
54846;DHT22;53889;50.084;8.646;2023-07-13T03:49:05;18.60;80.30
54846;DHT22;53889;50.084;8.646;2023-07-13T03:51:32;18.60;80.60
54846;DHT22;53889;50.084;8.646;2023-07-13T03:54:01;18.60;80.40
54846;DHT22;53889;50.084;8.646;2023-07-13T03:56:29;18.60;80.30
54846;DHT22;53889;50.084;8.646;2023-07-13T03:58:58;18.60;80.30
54846;DHT22;53889;50.084;8.646;2023-07-13T04:01:25;18.60;80.30
54846;DHT22;53889;50.084;8.646;2023-07-13T04:03:52;18.50;80.40
54846;DHT22;53889;50.084;8.646;2023-07-13T04:06:23;18.50;80.60
54846;DHT22;53889;50.084;8.646;2023-07-13T04:08:52;18.40;81.20
54846;DHT22;53889;50.084;8.646;2023-07-13T04:11:22;18.20;81.50
54846;DHT22;53889;50.084;8.646;2023-07-13T04:13:50;18.10;82.30
54846;DHT22;53889;50.084;8.646;2023-07-13T04:16:17;18.10;82.70
54846;DHT22;53889;50.084;8.646;2023-07-13T04:18:45;18.20;82.30
54846;DHT22;53889;50.084;8.646;2023-07-13T04:21:13;18.30;82.60
54846;DHT22;53889;50.084;8.646;2023-07-13T04:23:40;18.30;82.30
54846;DHT22;53889;50.084;8.646;2023-07-13T04:26:07;18.50;81.80
54846;DHT22;53889;50.084;8.646;2023-07-13T04:28:35;18.80;80.90
54846;DHT22;53889;50.084;8.646;2023-07-13T04:31:02;19.20;79.90
54846;DHT22;53889;50.084;8.646;2023-07-13T04:33:29;19.40;79.60
54846;DHT22;53889;50.084;8.646;2023-07-13T04:35:57;19.50;79.30
54846;DHT22;53889;50.084;8.646;2023-07-13T04:38:26;19.80;78.60
54846;DHT22;53889;50.084;8.646;2023-07-13T04:40:55;19.80;78.30
54846;DHT22;53889;50.084;8.646;2023-07-13T04:43:22;20.30;77.70
54846;DHT22;53889;50.084;8.646;2023-07-13T04:45:50;20.60;76.60
54846;DHT22;53889;50.084;8.646;2023-07-13T04:48:17;20.90;75.70
54846;DHT22;53889;50.084;8.646;2023-07-13T04:50:44;21.30;75.60
54846;DHT22;53889;50.084;8.646;2023-07-13T04:53:11;21.50;74.40
54846;DHT22;53889;50.084;8.646;2023-07-13T04:55:38;21.90;73.20
54846;DHT22;53889;50.084;8.646;2023-07-13T04:58:06;22.10;73.00
54846;DHT22;53889;50.084;8.646;2023-07-13T05:00:33;22.40;72.20
54846;DHT22;53889;50.084;8.646;2023-07-13T05:03:03;22.40;72.50
54846;DHT22;53889;50.084;8.646;2023-07-13T05:05:29;22.50;71.80
54846;DHT22;53889;50.084;8.646;2023-07-13T05:07:56;22.80;71.20
54846;DHT22;53889;50.084;8.646;2023-07-13T05:10:23;23.40;70.50
54846;DHT22;53889;50.084;8.646;2023-07-13T05:12:50;23.60;69.60
54846;DHT22;53889;50.084;8.646;2023-07-13T05:15:17;23.80;68.80
54846;DHT22;53889;50.084;8.646;2023-07-13T05:17:46;23.50;68.80
54846;DHT22;53889;50.084;8.646;2023-07-13T05:20:15;23.70;69.20
54846;DHT22;53889;50.084;8.646;2023-07-13T05:22:42;23.30;69.20
54846;DHT22;53889;50.084;8.646;2023-07-13T05:25:10;22.90;70.90
54846;DHT22;53889;50.084;8.646;2023-07-13T05:27:38;22.90;70.70
54846;DHT22;53889;50.084;8.646;2023-07-13T05:30:06;23.30;70.10
54846;DHT22;53889;50.084;8.646;2023-07-13T05:32:36;23.60;68.30
54846;DHT22;53889;50.084;8.646;2023-07-13T05:35:03;23.80;68.00
54846;DHT22;53889;50.084;8.646;2023-07-13T05:37:31;24.00;68.10
54846;DHT22;53889;50.084;8.646;2023-07-13T05:39:58;24.40;66.20
54846;DHT22;53889;50.084;8.646;2023-07-13T05:42:25;23.70;67.00
54846;DHT22;53889;50.084;8.646;2023-07-13T05:44:52;23.70;67.10
54846;DHT22;53889;50.084;8.646;2023-07-13T05:47:19;23.70;66.40
54846;DHT22;53889;50.084;8.646;2023-07-13T05:49:45;23.50;66.20
54846;DHT22;53889;50.084;8.646;2023-07-13T05:52:12;23.60;66.70
54846;DHT22;53889;50.084;8.646;2023-07-13T05:54:40;24.40;65.00
54846;DHT22;53889;50.084;8.646;2023-07-13T05:57:07;24.40;64.60
54846;DHT22;53889;50.084;8.646;2023-07-13T05:59:33;24.90;63.90
54846;DHT22;53889;50.084;8.646;2023-07-13T06:02:00;25.00;63.70
54846;DHT22;53889;50.084;8.646;2023-07-13T06:04:27;24.20;64.30
54846;DHT22;53889;50.084;8.646;2023-07-13T06:06:53;24.30;64.90
54846;DHT22;53889;50.084;8.646;2023-07-13T06:09:20;24.20;64.50
54846;DHT22;53889;50.084;8.646;2023-07-13T06:11:48;24.20;64.90
54846;DHT22;53889;50.084;8.646;2023-07-13T06:14:15;24.40;64.90
54846;DHT22;53889;50.084;8.646;2023-07-13T06:16:41;24.70;64.30
54846;DHT22;53889;50.084;8.646;2023-07-13T06:19:08;24.50;64.50
54846;DHT22;53889;50.084;8.646;2023-07-13T06:21:35;24.50;64.50
54846;DHT22;53889;50.084;8.646;2023-07-13T06:24:02;24.60;64.20
54846;DHT22;53889;50.084;8.646;2023-07-13T06:26:28;24.70;64.30
54846;DHT22;53889;50.084;8.646;2023-07-13T06:28:56;24.50;64.10
54846;DHT22;53889;50.084;8.646;2023-07-13T06:31:23;25.20;63.60
54846;DHT22;53889;50.084;8.646;2023-07-13T06:33:50;25.50;63.40
54846;DHT22;53889;50.084;8.646;2023-07-13T06:36:16;25.80;61.90
54846;DHT22;53889;50.084;8.646;2023-07-13T06:38:43;25.30;62.30
54846;DHT22;53889;50.084;8.646;2023-07-13T06:41:10;25.60;62.40
54846;DHT22;53889;50.084;8.646;2023-07-13T06:43:36;26.40;61.80
54846;DHT22;53889;50.084;8.646;2023-07-13T06:46:05;26.60;60.90
54846;DHT22;53889;50.084;8.646;2023-07-13T06:48:31;27.10;60.40
54846;DHT22;53889;50.084;8.646;2023-07-13T06:50:58;26.70;60.00
54846;DHT22;53889;50.084;8.646;2023-07-13T06:53:25;27.30;59.60
54846;DHT22;53889;50.084;8.646;2023-07-13T06:55:52;27.60;58.80
54846;DHT22;53889;50.084;8.646;2023-07-13T06:58:19;27.50;58.70
54846;DHT22;53889;50.084;8.646;2023-07-13T07:00:46;27.10;59.00
54846;DHT22;53889;50.084;8.646;2023-07-13T07:03:17;27.20;58.40
54846;DHT22;53889;50.084;8.646;2023-07-13T07:05:44;27.10;58.30
54846;DHT22;53889;50.084;8.646;2023-07-13T07:08:11;27.00;58.80
54846;DHT22;53889;50.084;8.646;2023-07-13T07:10:38;26.80;59.10
54846;DHT22;53889;50.084;8.646;2023-07-13T07:13:04;27.30;58.10
54846;DHT22;53889;50.084;8.646;2023-07-13T07:15:31;27.40;57.90
54846;DHT22;53889;50.084;8.646;2023-07-13T07:17:58;27.50;58.20
54846;DHT22;53889;50.084;8.646;2023-07-13T07:20:26;27.30;58.50
54846;DHT22;53889;50.084;8.646;2023-07-13T07:22:53;27.30;58.60
54846;DHT22;53889;50.084;8.646;2023-07-13T07:25:20;27.20;58.10
54846;DHT22;53889;50.084;8.646;2023-07-13T07:27:46;27.50;58.10
54846;DHT22;53889;50.084;8.646;2023-07-13T07:30:13;27.20;58.30
54846;DHT22;53889;50.084;8.646;2023-07-13T07:32:40;27.10;58.60
54846;DHT22;53889;50.084;8.646;2023-07-13T07:35:08;27.10;58.40
54846;DHT22;53889;50.084;8.646;2023-07-13T07:37:36;26.80;58.70
54846;DHT22;53889;50.084;8.646;2023-07-13T07:40:03;26.70;57.80
54846;DHT22;53889;50.084;8.646;2023-07-13T07:42:30;27.10;57.90
54846;DHT22;53889;50.084;8.646;2023-07-13T07:44:57;27.80;57.10
54846;DHT22;53889;50.084;8.646;2023-07-13T07:47:23;27.70;56.60
54846;DHT22;53889;50.084;8.646;2023-07-13T07:49:50;27.30;57.70
54846;DHT22;53889;50.084;8.646;2023-07-13T07:52:18;27.70;57.30
54846;DHT22;53889;50.084;8.646;2023-07-13T07:54:46;27.80;57.30
54846;DHT22;53889;50.084;8.646;2023-07-13T07:57:12;27.70;57.70
54846;DHT22;53889;50.084;8.646;2023-07-13T07:59:39;27.40;57.30
54846;DHT22;53889;50.084;8.646;2023-07-13T08:02:08;27.30;57.60
54846;DHT22;53889;50.084;8.646;2023-07-13T08:04:35;27.20;56.80
54846;DHT22;53889;50.084;8.646;2023-07-13T08:07:02;26.60;57.10
54846;DHT22;53889;50.084;8.646;2023-07-13T08:09:29;27.00;57.60
54846;DHT22;53889;50.084;8.646;2023-07-13T08:11:57;27.10;57.30
54846;DHT22;53889;50.084;8.646;2023-07-13T08:14:24;27.50;57.20
54846;DHT22;53889;50.084;8.646;2023-07-13T08:16:50;27.60;56.30
54846;DHT22;53889;50.084;8.646;2023-07-13T08:19:17;27.50;56.40
54846;DHT22;53889;50.084;8.646;2023-07-13T08:21:44;27.50;56.60
54846;DHT22;53889;50.084;8.646;2023-07-13T08:24:13;28.70;56.80
54846;DHT22;53889;50.084;8.646;2023-07-13T08:26:40;27.60;56.20
54846;DHT22;53889;50.084;8.646;2023-07-13T08:29:08;26.70;57.10
54846;DHT22;53889;50.084;8.646;2023-07-13T08:31:35;27.50;56.50
54846;DHT22;53889;50.084;8.646;2023-07-13T08:34:01;27.90;55.30
54846;DHT22;53889;50.084;8.646;2023-07-13T08:36:29;28.40;55.00
54846;DHT22;53889;50.084;8.646;2023-07-13T08:38:55;28.40;54.30
54846;DHT22;53889;50.084;8.646;2023-07-13T08:41:22;27.80;53.80
54846;DHT22;53889;50.084;8.646;2023-07-13T08:43:51;27.20;54.60
54846;DHT22;53889;50.084;8.646;2023-07-13T08:46:24;26.90;55.10
54846;DHT22;53889;50.084;8.646;2023-07-13T08:48:56;27.30;54.90
54846;DHT22;53889;50.084;8.646;2023-07-13T08:51:38;28.00;54.20
54846;DHT22;53889;50.084;8.646;2023-07-13T08:54:17;28.20;53.10
54846;DHT22;53889;50.084;8.646;2023-07-13T08:56:45;28.50;52.40
54846;DHT22;53889;50.084;8.646;2023-07-13T08:59:14;28.60;52.90
54846;DHT22;53889;50.084;8.646;2023-07-13T09:02:17;28.80;52.20
54846;DHT22;53889;50.084;8.646;2023-07-13T09:04:50;29.40;51.20
54846;DHT22;53889;50.084;8.646;2023-07-13T09:07:30;29.60;50.80
54846;DHT22;53889;50.084;8.646;2023-07-13T09:10:08;29.70;50.20
54846;DHT22;53889;50.084;8.646;2023-07-13T09:12:48;29.90;50.00
54846;DHT22;53889;50.084;8.646;2023-07-13T09:15:24;29.90;49.80
54846;DHT22;53889;50.084;8.646;2023-07-13T09:17:56;29.70;50.00
54846;DHT22;53889;50.084;8.646;2023-07-13T09:20:29;29.40;49.30
54846;DHT22;53889;50.084;8.646;2023-07-13T09:22:59;29.50;48.70
54846;DHT22;53889;50.084;8.646;2023-07-13T09:25:30;28.90;49.30
54846;DHT22;53889;50.084;8.646;2023-07-13T09:28:10;28.50;50.50
54846;DHT22;53889;50.084;8.646;2023-07-13T09:30:42;29.20;50.20
54846;DHT22;53889;50.084;8.646;2023-07-13T09:33:11;30.40;51.20
54846;DHT22;53889;50.084;8.646;2023-07-13T09:35:39;29.70;50.20
54846;DHT22;53889;50.084;8.646;2023-07-13T09:38:12;30.40;49.50
54846;DHT22;53889;50.084;8.646;2023-07-13T09:40:56;30.20;49.00
54846;DHT22;53889;50.084;8.646;2023-07-13T09:43:25;30.30;48.60
54846;DHT22;53889;50.084;8.646;2023-07-13T09:45:55;29.70;49.10
54846;DHT22;53889;50.084;8.646;2023-07-13T09:48:23;29.60;48.80
54846;DHT22;53889;50.084;8.646;2023-07-13T09:50:54;30.60;48.80
54846;DHT22;53889;50.084;8.646;2023-07-13T09:53:22;30.50;48.50
54846;DHT22;53889;50.084;8.646;2023-07-13T09:55:49;30.00;49.00
54846;DHT22;53889;50.084;8.646;2023-07-13T09:58:18;29.60;49.10
54846;DHT22;53889;50.084;8.646;2023-07-13T10:00:55;29.60;49.50
54846;DHT22;53889;50.084;8.646;2023-07-13T10:03:25;29.70;49.50
54846;DHT22;53889;50.084;8.646;2023-07-13T10:05:52;29.70;49.10
54846;DHT22;53889;50.084;8.646;2023-07-13T10:08:24;29.60;49.20
54846;DHT22;53889;50.084;8.646;2023-07-13T10:10:57;29.90;49.00
54846;DHT22;53889;50.084;8.646;2023-07-13T10:13:30;30.10;49.20
54846;DHT22;53889;50.084;8.646;2023-07-13T10:16:00;30.20;49.00
54846;DHT22;53889;50.084;8.646;2023-07-13T10:18:29;30.00;49.30
54846;DHT22;53889;50.084;8.646;2023-07-13T10:21:11;30.40;48.80
54846;DHT22;53889;50.084;8.646;2023-07-13T10:23:39;30.30;49.00
54846;DHT22;53889;50.084;8.646;2023-07-13T10:26:15;29.80;49.20
54846;DHT22;53889;50.084;8.646;2023-07-13T10:28:45;29.70;49.80
54846;DHT22;53889;50.084;8.646;2023-07-13T10:31:15;30.50;48.60
54846;DHT22;53889;50.084;8.646;2023-07-13T10:33:44;30.00;48.90
54846;DHT22;53889;50.084;8.646;2023-07-13T10:36:19;30.30;48.60
54846;DHT22;53889;50.084;8.646;2023-07-13T10:38:49;29.90;49.10
54846;DHT22;53889;50.084;8.646;2023-07-13T10:41:18;29.70;49.50
54846;DHT22;53889;50.084;8.646;2023-07-13T10:43:47;30.20;48.80
54846;DHT22;53889;50.084;8.646;2023-07-13T10:46:19;30.40;49.10
54846;DHT22;53889;50.084;8.646;2023-07-13T10:48:51;30.60;48.60
54846;DHT22;53889;50.084;8.646;2023-07-13T10:51:20;30.80;48.50
54846;DHT22;53889;50.084;8.646;2023-07-13T10:54:10;30.20;48.30
54846;DHT22;53889;50.084;8.646;2023-07-13T10:56:38;30.50;48.20
54846;DHT22;53889;50.084;8.646;2023-07-13T10:59:11;30.20;48.70
54846;DHT22;53889;50.084;8.646;2023-07-13T11:01:46;30.20;48.50
54846;DHT22;53889;50.084;8.646;2023-07-13T11:04:19;30.30;48.70
54846;DHT22;53889;50.084;8.646;2023-07-13T11:06:49;30.90;48.00
54846;DHT22;53889;50.084;8.646;2023-07-13T11:12:06;29.80;48.60
54846;DHT22;53889;50.084;8.646;2023-07-13T11:14:36;29.90;48.30
54846;DHT22;53889;50.084;8.646;2023-07-13T11:17:24;30.90;47.20
54846;DHT22;53889;50.084;8.646;2023-07-13T11:19:53;31.50;46.70
54846;DHT22;53889;50.084;8.646;2023-07-13T11:22:25;32.10;46.00
54846;DHT22;53889;50.084;8.646;2023-07-13T11:25:26;32.60;45.40
54846;DHT22;53889;50.084;8.646;2023-07-13T11:28:06;33.20;44.10
54846;DHT22;53889;50.084;8.646;2023-07-13T11:30:39;32.30;45.00
54846;DHT22;53889;50.084;8.646;2023-07-13T11:33:18;31.90;45.20
54846;DHT22;53889;50.084;8.646;2023-07-13T11:35:53;31.70;44.20
54846;DHT22;53889;50.084;8.646;2023-07-13T11:38:30;31.80;44.90
54846;DHT22;53889;50.084;8.646;2023-07-13T11:41:01;31.50;44.70
54846;DHT22;53889;50.084;8.646;2023-07-13T11:43:29;31.30;44.90
54846;DHT22;53889;50.084;8.646;2023-07-13T11:45:59;30.90;45.50
54846;DHT22;53889;50.084;8.646;2023-07-13T11:48:38;30.70;46.00
54846;DHT22;53889;50.084;8.646;2023-07-13T11:51:14;29.70;46.60
54846;DHT22;53889;50.084;8.646;2023-07-13T11:53:46;29.30;47.50
54846;DHT22;53889;50.084;8.646;2023-07-13T11:56:13;28.60;48.70
54846;DHT22;53889;50.084;8.646;2023-07-13T11:58:41;28.30;49.20
54846;DHT22;53889;50.084;8.646;2023-07-13T12:01:16;28.80;48.90
54846;DHT22;53889;50.084;8.646;2023-07-13T12:03:45;28.80;48.40
54846;DHT22;53889;50.084;8.646;2023-07-13T12:06:24;28.80;48.70
54846;DHT22;53889;50.084;8.646;2023-07-13T12:08:56;28.10;49.00
54846;DHT22;53889;50.084;8.646;2023-07-13T12:11:23;28.20;49.20
54846;DHT22;53889;50.084;8.646;2023-07-13T12:13:50;28.50;48.60
54846;DHT22;53889;50.084;8.646;2023-07-13T12:16:26;28.80;49.00
54846;DHT22;53889;50.084;8.646;2023-07-13T12:18:54;28.70;48.20
54846;DHT22;53889;50.084;8.646;2023-07-13T12:21:29;29.20;47.90
54846;DHT22;53889;50.084;8.646;2023-07-13T12:23:56;29.00;48.10
54846;DHT22;53889;50.084;8.646;2023-07-13T12:26:23;28.80;48.30
54846;DHT22;53889;50.084;8.646;2023-07-13T12:28:52;28.80;47.70
54846;DHT22;53889;50.084;8.646;2023-07-13T12:31:40;29.00;47.80
54846;DHT22;53889;50.084;8.646;2023-07-13T12:34:09;28.60;47.90
54846;DHT22;53889;50.084;8.646;2023-07-13T12:36:40;28.50;48.20
54846;DHT22;53889;50.084;8.646;2023-07-13T12:39:12;28.50;48.30
54846;DHT22;53889;50.084;8.646;2023-07-13T12:41:40;28.40;48.60
54846;DHT22;53889;50.084;8.646;2023-07-13T12:44:11;28.30;48.60
54846;DHT22;53889;50.084;8.646;2023-07-13T12:46:38;28.40;48.40
54846;DHT22;53889;50.084;8.646;2023-07-13T12:49:06;28.90;48.60
54846;DHT22;53889;50.084;8.646;2023-07-13T12:51:33;29.10;48.30
54846;DHT22;53889;50.084;8.646;2023-07-13T12:54:13;29.10;47.90
54846;DHT22;53889;50.084;8.646;2023-07-13T12:56:42;29.20;47.80
54846;DHT22;53889;50.084;8.646;2023-07-13T12:59:16;28.30;48.30
54846;DHT22;53889;50.084;8.646;2023-07-13T13:01:43;28.70;49.10
54846;DHT22;53889;50.084;8.646;2023-07-13T13:04:11;29.00;48.60
54846;DHT22;53889;50.084;8.646;2023-07-13T13:06:38;29.20;48.30
54846;DHT22;53889;50.084;8.646;2023-07-13T13:09:12;29.10;48.20
54846;DHT22;53889;50.084;8.646;2023-07-13T13:11:40;28.90;48.80
54846;DHT22;53889;50.084;8.646;2023-07-13T13:14:07;28.50;49.20
54846;DHT22;53889;50.084;8.646;2023-07-13T13:16:35;28.40;49.60
54846;DHT22;53889;50.084;8.646;2023-07-13T13:19:12;28.50;49.80
54846;DHT22;53889;50.084;8.646;2023-07-13T13:21:41;28.70;49.50
54846;DHT22;53889;50.084;8.646;2023-07-13T13:24:13;28.60;49.50
54846;DHT22;53889;50.084;8.646;2023-07-13T13:26:40;28.50;49.90
54846;DHT22;53889;50.084;8.646;2023-07-13T13:29:15;28.50;49.80
54846;DHT22;53889;50.084;8.646;2023-07-13T13:31:42;28.40;50.00
54846;DHT22;53889;50.084;8.646;2023-07-13T13:34:10;28.60;49.40
54846;DHT22;53889;50.084;8.646;2023-07-13T13:36:39;28.70;49.30
54846;DHT22;53889;50.084;8.646;2023-07-13T13:39:18;28.40;49.50
54846;DHT22;53889;50.084;8.646;2023-07-13T13:41:45;28.40;49.50
54846;DHT22;53889;50.084;8.646;2023-07-13T13:44:17;28.10;49.70
54846;DHT22;53889;50.084;8.646;2023-07-13T13:46:46;27.30;51.00
54846;DHT22;53889;50.084;8.646;2023-07-13T13:49:15;27.10;51.20
54846;DHT22;53889;50.084;8.646;2023-07-13T13:51:44;27.10;51.50
54846;DHT22;53889;50.084;8.646;2023-07-13T13:54:12;27.30;51.50
54846;DHT22;53889;50.084;8.646;2023-07-13T13:56:41;27.70;50.90
54846;DHT22;53889;50.084;8.646;2023-07-13T13:59:08;27.60;51.30
54846;DHT22;53889;50.084;8.646;2023-07-13T14:01:35;27.60;51.70
54846;DHT22;53889;50.084;8.646;2023-07-13T14:04:03;27.70;51.30
54846;DHT22;53889;50.084;8.646;2023-07-13T14:06:31;27.60;51.50
54846;DHT22;53889;50.084;8.646;2023-07-13T14:08:58;27.40;52.10
54846;DHT22;53889;50.084;8.646;2023-07-13T14:11:25;27.60;51.90
54846;DHT22;53889;50.084;8.646;2023-07-13T14:13:56;27.60;51.60
54846;DHT22;53889;50.084;8.646;2023-07-13T14:16:33;27.40;51.90
54846;DHT22;53889;50.084;8.646;2023-07-13T14:19:00;27.60;51.30
54846;DHT22;53889;50.084;8.646;2023-07-13T14:21:29;27.70;51.20
54846;DHT22;53889;50.084;8.646;2023-07-13T14:23:55;27.70;51.60
54846;DHT22;53889;50.084;8.646;2023-07-13T14:26:24;27.60;51.30
54846;DHT22;53889;50.084;8.646;2023-07-13T14:28:55;27.50;51.60
54846;DHT22;53889;50.084;8.646;2023-07-13T14:31:24;27.40;51.50
54846;DHT22;53889;50.084;8.646;2023-07-13T14:33:54;27.80;51.40
54846;DHT22;53889;50.084;8.646;2023-07-13T14:36:27;27.90;51.30
54846;DHT22;53889;50.084;8.646;2023-07-13T14:38:54;27.90;51.70
54846;DHT22;53889;50.084;8.646;2023-07-13T14:41:21;27.70;52.50
54846;DHT22;53889;50.084;8.646;2023-07-13T14:43:48;27.60;52.70
54846;DHT22;53889;50.084;8.646;2023-07-13T14:46:24;27.50;52.70
54846;DHT22;53889;50.084;8.646;2023-07-13T14:48:59;27.10;53.30
54846;DHT22;53889;50.084;8.646;2023-07-13T14:51:26;27.20;53.20
54846;DHT22;53889;50.084;8.646;2023-07-13T14:53:53;27.20;53.40
54846;DHT22;53889;50.084;8.646;2023-07-13T14:56:19;27.10;53.70
54846;DHT22;53889;50.084;8.646;2023-07-13T14:58:46;26.80;53.90
54846;DHT22;53889;50.084;8.646;2023-07-13T15:01:14;27.00;53.90
54846;DHT22;53889;50.084;8.646;2023-07-13T15:03:45;26.90;53.70
54846;DHT22;53889;50.084;8.646;2023-07-13T15:06:13;27.00;53.50
54846;DHT22;53889;50.084;8.646;2023-07-13T15:08:40;27.00;53.40
54846;DHT22;53889;50.084;8.646;2023-07-13T15:11:08;26.80;53.50
54846;DHT22;53889;50.084;8.646;2023-07-13T15:13:38;27.00;53.00
54846;DHT22;53889;50.084;8.646;2023-07-13T15:16:09;27.00;53.60
54846;DHT22;53889;50.084;8.646;2023-07-13T15:18:37;27.10;54.00
54846;DHT22;53889;50.084;8.646;2023-07-13T15:21:09;27.00;53.70
54846;DHT22;53889;50.084;8.646;2023-07-13T15:23:39;27.00;53.40
54846;DHT22;53889;50.084;8.646;2023-07-13T15:26:09;26.80;53.70
54846;DHT22;53889;50.084;8.646;2023-07-13T15:28:37;26.80;53.40
54846;DHT22;53889;50.084;8.646;2023-07-13T15:31:16;26.80;53.60
54846;DHT22;53889;50.084;8.646;2023-07-13T15:33:44;26.80;53.50
54846;DHT22;53889;50.084;8.646;2023-07-13T15:36:15;26.60;53.70
54846;DHT22;53889;50.084;8.646;2023-07-13T15:38:43;26.70;53.90
54846;DHT22;53889;50.084;8.646;2023-07-13T15:41:16;27.00;53.80
54846;DHT22;53889;50.084;8.646;2023-07-13T15:43:44;27.10;53.30
54846;DHT22;53889;50.084;8.646;2023-07-13T15:46:10;27.30;53.10